createdAt,value
2018-03-01T00:03:45.576Z,89.30
2018-03-01T00:08:29.711Z,90.30
2018-03-01T00:13:13.080Z,90.30
2018-03-01T00:17:57.194Z,90.60
2018-03-01T00:22:40.555Z,90.60
2018-03-01T00:27:23.937Z,90.70
2018-03-01T00:32:07.386Z,90.90
2018-03-01T00:36:50.808Z,90.60
2018-03-01T00:41:34.201Z,90.60
2018-03-01T00:46:17.577Z,90.80
2018-03-01T00:51:00.990Z,91.00
2018-03-01T00:55:45.143Z,91.50
2018-03-01T01:00:28.523Z,91.40
2018-03-01T01:05:12.658Z,92.30
2018-03-01T01:09:56.852Z,92.70
2018-03-01T01:14:40.207Z,92.60
2018-03-01T01:19:23.566Z,92.90
2018-03-01T01:24:06.875Z,93.00
2018-03-01T01:28:50.257Z,93.40
2018-03-01T01:33:33.610Z,93.50
2018-03-01T01:38:16.980Z,93.50
2018-03-01T01:43:00.336Z,93.60
2018-03-01T01:47:44.488Z,93.40
2018-03-01T01:52:28.587Z,93.20
2018-03-01T01:57:11.933Z,93.20
2018-03-01T02:01:55.311Z,93.80
2018-03-01T02:06:38.655Z,93.40
2018-03-01T02:11:22.803Z,92.60
2018-03-01T02:16:06.143Z,92.60
2018-03-01T02:20:49.474Z,92.50
2018-03-01T02:25:32.878Z,92.40
2018-03-01T02:30:24.638Z,92.60
2018-03-01T02:35:07.979Z,92.70
2018-03-01T02:39:51.275Z,92.80
2018-03-01T02:44:35.382Z,93.20
2018-03-01T02:49:18.716Z,93.50
2018-03-01T02:54:02.035Z,93.20
2018-03-01T02:58:45.439Z,93.20
2018-03-01T03:03:28.806Z,93.40
2018-03-01T03:08:12.200Z,93.60
2018-03-01T03:12:55.516Z,93.60
2018-03-01T03:17:38.875Z,94.00
2018-03-01T03:22:23.055Z,94.30
2018-03-01T03:27:06.688Z,94.30
2018-03-01T03:31:50.051Z,94.30
2018-03-01T03:36:33.400Z,94.30
2018-03-01T03:41:17.733Z,94.30
2018-03-01T03:46:02.593Z,94.30
2018-03-01T03:50:45.972Z,94.50
2018-03-01T03:55:30.171Z,94.30
2018-03-01T04:00:13.533Z,94.20
2018-03-01T04:04:56.874Z,94.30
2018-03-01T04:09:40.252Z,94.50
2018-03-01T04:14:23.622Z,94.60
2018-03-01T04:19:06.987Z,94.90
2018-03-01T04:23:50.337Z,94.70
2018-03-01T04:28:33.671Z,94.80
2018-03-01T04:33:17.047Z,94.90
2018-03-01T04:38:00.367Z,94.70
2018-03-01T04:42:43.725Z,94.80
2018-03-01T04:47:27.062Z,94.90
2018-03-01T04:52:10.489Z,94.90
2018-03-01T04:56:53.986Z,95.10
2018-03-01T05:01:37.623Z,95.20
2018-03-01T05:06:21.037Z,95.20
2018-03-01T05:11:04.373Z,95.10
2018-03-01T05:15:47.787Z,95.30
2018-03-01T05:20:31.152Z,95.70
2018-03-01T05:25:14.471Z,95.70
2018-03-01T05:29:57.814Z,95.70
2018-03-01T05:34:41.204Z,95.80
2018-03-01T05:39:24.823Z,95.70
2018-03-01T05:44:08.196Z,95.70
2018-03-01T05:48:56.533Z,96.00
2018-03-01T05:53:39.890Z,96.00
2018-03-01T05:58:30.502Z,96.10
2018-03-01T06:03:14.136Z,96.10
2018-03-01T06:07:57.517Z,95.70
2018-03-01T06:12:40.929Z,95.50
2018-03-01T06:17:24.349Z,95.30
2018-03-01T06:22:07.678Z,95.10
2018-03-01T06:26:51.100Z,94.90
2018-03-01T06:31:34.515Z,94.90
2018-03-01T06:36:17.881Z,94.60
2018-03-01T06:41:01.492Z,94.40
2018-03-01T06:45:45.593Z,93.70
2018-03-01T06:50:28.949Z,93.70
2018-03-01T06:55:12.309Z,93.50
2018-03-01T06:59:56.445Z,93.00
2018-03-01T07:04:39.838Z,93.00
2018-03-01T07:09:23.238Z,92.80
2018-03-01T07:14:06.555Z,92.70
2018-03-01T07:18:49.917Z,92.30
2018-03-01T07:23:33.284Z,92.10
2018-03-01T07:28:16.722Z,91.90
2018-03-01T07:33:00.952Z,91.20
2018-03-01T07:37:44.330Z,91.10
2018-03-01T07:42:27.705Z,90.80
2018-03-01T07:47:11.050Z,90.50
2018-03-01T07:51:54.399Z,90.70
2018-03-01T07:56:37.768Z,89.70
2018-03-01T08:01:21.140Z,88.70
2018-03-01T08:06:05.285Z,87.30
2018-03-01T08:10:48.667Z,87.20
2018-03-01T08:15:31.990Z,85.50
2018-03-01T08:20:16.120Z,82.80
2018-03-01T08:24:59.483Z,82.80
2018-03-01T08:29:43.683Z,82.00
2018-03-01T08:34:27.008Z,81.90
2018-03-01T08:39:10.349Z,79.80
2018-03-01T08:43:53.716Z,79.00
2018-03-01T08:48:37.079Z,76.30
2018-03-01T08:53:20.480Z,73.50
2018-03-01T08:58:03.822Z,73.50
2018-03-01T09:02:47.249Z,71.70
2018-03-01T09:07:30.574Z,71.00
2018-03-01T09:12:14.739Z,68.60
2018-03-01T09:16:58.838Z,67.20
2018-03-01T09:21:42.244Z,67.10
2018-03-01T09:26:25.922Z,66.50
2018-03-01T09:31:09.315Z,65.80
2018-03-01T09:35:53.452Z,65.90
2018-03-01T09:40:36.868Z,65.80
2018-03-01T09:45:20.298Z,63.40
2018-03-01T09:50:04.344Z,61.20
2018-03-01T09:54:47.802Z,56.70
2018-03-01T09:59:31.200Z,56.20
2018-03-01T10:04:15.272Z,54.70
2018-03-01T10:08:58.611Z,54.70
2018-03-01T10:13:42.089Z,55.20
2018-03-01T10:18:25.460Z,52.80
2018-03-01T10:23:08.817Z,52.50
2018-03-01T10:27:53.119Z,50.30
2018-03-01T10:32:36.442Z,50.60
2018-03-01T10:37:19.797Z,51.50
2018-03-01T10:42:03.213Z,50.60
2018-03-01T10:46:47.369Z,47.90
2018-03-01T10:51:30.717Z,48.00
2018-03-01T10:56:14.829Z,49.60
2018-03-01T11:00:59.942Z,49.50
2018-03-01T11:05:44.070Z,47.40
2018-03-01T11:10:27.470Z,47.40
2018-03-01T11:15:10.789Z,45.70
2018-03-01T11:19:54.907Z,47.10
2018-03-01T11:24:38.284Z,47.10
2018-03-01T11:29:22.428Z,45.30
2018-03-01T11:34:05.803Z,45.70
2018-03-01T11:38:49.139Z,44.60
2018-03-01T11:43:32.517Z,44.10
2018-03-01T11:48:15.858Z,44.00
2018-03-01T11:52:59.257Z,42.50
2018-03-01T11:57:43.351Z,39.50
2018-03-01T12:02:26.808Z,39.50
2018-03-01T12:07:10.129Z,38.90
2018-03-01T12:11:53.918Z,40.50
2018-03-01T12:16:37.258Z,35.90
2018-03-01T12:21:21.370Z,36.20
2018-03-01T12:26:04.796Z,36.20
2018-03-01T12:30:48.224Z,36.90
2018-03-01T12:35:31.695Z,38.50
2018-03-01T12:40:15.055Z,37.20
2018-03-01T12:44:58.544Z,36.30
2018-03-01T12:49:42.691Z,34.90
2018-03-01T12:54:26.006Z,34.90
2018-03-01T12:59:09.376Z,35.50
2018-03-01T13:03:52.859Z,34.20
2018-03-01T13:08:36.239Z,34.30
2018-03-01T13:13:19.612Z,34.50
2018-03-01T13:18:02.932Z,33.50
2018-03-01T13:22:46.287Z,34.30
2018-03-01T13:27:29.638Z,36.20
2018-03-01T13:32:16.323Z,38.90
2018-03-01T13:36:59.667Z,38.90
2018-03-01T13:41:42.999Z,39.30
2018-03-01T13:46:38.169Z,40.60
2018-03-01T13:51:22.388Z,41.20
2018-03-01T13:56:05.788Z,41.20
2018-03-01T14:00:49.160Z,40.50
2018-03-01T14:05:32.556Z,40.30
2018-03-01T14:10:15.922Z,41.90
2018-03-01T14:14:59.270Z,42.60
2018-03-01T14:19:51.101Z,42.40
2018-03-01T14:24:34.947Z,42.80
2018-03-01T14:29:34.135Z,43.20
2018-03-01T14:34:17.800Z,43.70
2018-03-01T14:39:01.108Z,45.90
2018-03-01T14:43:45.199Z,46.60
2018-03-01T14:48:28.632Z,46.60
2018-03-01T14:53:12.082Z,48.10
2018-03-01T14:57:55.578Z,49.10
2018-03-01T15:02:38.900Z,49.20
2018-03-01T15:07:23.212Z,49.50
2018-03-01T15:12:06.563Z,50.80
2018-03-01T15:16:49.880Z,50.60
2018-03-01T15:21:33.991Z,51.90
2018-03-01T15:26:17.296Z,51.90
2018-03-01T15:31:01.411Z,53.20
2018-03-01T15:35:44.801Z,53.10
2018-03-01T15:40:28.218Z,53.90
2018-03-01T15:45:11.571Z,54.80
2018-03-01T15:49:55.005Z,56.00
2018-03-01T15:54:39.138Z,56.90
2018-03-01T15:59:22.536Z,56.90
2018-03-01T16:04:05.939Z,56.60
2018-03-01T16:08:50.171Z,58.40
2018-03-01T16:13:36.083Z,58.20
2018-03-01T16:18:19.443Z,59.00
2018-03-01T16:23:03.560Z,59.80
2018-03-01T16:27:46.955Z,59.80
2018-03-01T16:32:30.543Z,60.00
2018-03-01T16:37:13.879Z,61.00
2018-03-01T16:41:57.251Z,61.20
2018-03-01T16:46:41.538Z,61.70
2018-03-01T16:51:25.552Z,62.60
2018-03-01T16:56:09.325Z,63.30
2018-03-01T17:00:55.322Z,64.20
2018-03-01T17:05:41.379Z,64.90
2018-03-01T17:10:29.801Z,65.40
2018-03-01T17:15:14.982Z,66.20
2018-03-01T17:20:09.219Z,67.10
2018-03-01T17:24:53.395Z,67.00
2018-03-01T17:29:38.247Z,67.60
2018-03-01T17:34:25.050Z,69.00
2018-03-01T17:39:11.571Z,68.90
2018-03-01T17:43:56.336Z,69.40
2018-03-01T17:48:41.549Z,69.70
2018-03-01T17:53:28.685Z,71.00
2018-03-01T17:58:13.134Z,71.00
2018-03-01T18:02:57.087Z,71.80
2018-03-01T18:07:43.453Z,72.60
2018-03-01T18:12:34.605Z,72.70
2018-03-01T18:17:21.473Z,73.60
2018-03-01T18:22:10.723Z,73.50
2018-03-01T18:27:00.386Z,74.00
2018-03-01T18:31:45.026Z,75.30
2018-03-01T18:36:29.150Z,75.30
2018-03-01T18:41:12.845Z,75.80
2018-03-01T18:45:56.596Z,75.90
2018-03-01T18:50:40.396Z,76.40
2018-03-01T18:55:23.904Z,77.00
2018-03-01T19:00:10.938Z,77.60
2018-03-01T19:04:54.342Z,77.70
2018-03-01T19:09:37.740Z,78.20
2018-03-01T19:14:21.920Z,79.10
2018-03-01T19:19:05.285Z,79.00
2018-03-01T19:23:48.623Z,79.10
2018-03-01T19:28:31.997Z,79.20
2018-03-01T19:33:16.116Z,79.80
2018-03-01T19:37:59.512Z,79.70
2018-03-01T19:42:42.877Z,80.40
2018-03-01T19:47:26.196Z,80.70
2018-03-01T19:52:09.561Z,81.20
2018-03-01T19:56:52.911Z,81.50
2018-03-01T20:01:36.252Z,82.10
2018-03-01T20:06:19.608Z,82.60
2018-03-01T20:11:02.905Z,82.40
2018-03-01T20:15:46.784Z,82.90
2018-03-01T20:20:30.147Z,83.30
2018-03-01T20:25:13.610Z,83.10
2018-03-01T20:29:56.960Z,83.40
2018-03-01T20:34:40.394Z,83.30
2018-03-01T20:39:24.537Z,84.00
2018-03-01T20:44:07.866Z,83.90
2018-03-01T20:48:51.195Z,84.60
2018-03-01T20:53:34.566Z,85.10
2018-03-01T20:58:17.860Z,85.50
2018-03-01T21:03:01.228Z,86.00
2018-03-01T21:07:44.586Z,86.70
2018-03-01T21:12:27.965Z,87.60
2018-03-01T21:17:12.108Z,88.50
2018-03-01T21:21:56.216Z,89.00
2018-03-01T21:26:39.611Z,89.00
2018-03-01T21:31:22.971Z,89.10
2018-03-01T21:36:06.331Z,89.00
2018-03-01T21:40:49.705Z,89.10
2018-03-01T21:45:33.075Z,89.00
2018-03-01T21:50:16.421Z,89.20
2018-03-01T21:55:00.532Z,88.80
2018-03-01T21:59:43.917Z,88.80
2018-03-01T22:04:28.071Z,89.00
2018-03-01T22:09:12.439Z,89.20
2018-03-01T22:13:56.527Z,89.60
2018-03-01T22:18:39.920Z,89.60
2018-03-01T22:23:23.273Z,89.70
2018-03-01T22:28:06.682Z,89.60
2018-03-01T22:32:50.006Z,90.00
2018-03-01T22:37:33.394Z,90.30
2018-03-01T22:42:17.526Z,90.40
2018-03-01T22:47:00.969Z,90.40
2018-03-01T22:51:44.346Z,90.00
2018-03-01T22:56:27.727Z,89.50
2018-03-01T23:01:11.174Z,90.00
2018-03-01T23:05:54.589Z,90.00
2018-03-01T23:10:38.209Z,90.00
2018-03-01T23:15:22.376Z,90.10
2018-03-01T23:20:06.560Z,90.30
2018-03-01T23:24:49.991Z,90.30
2018-03-01T23:29:34.142Z,90.60
2018-03-01T23:34:18.295Z,90.50
2018-03-01T23:39:01.636Z,90.50
2018-03-01T23:43:45.802Z,90.90
2018-03-01T23:48:29.994Z,90.60
2018-03-01T23:53:13.369Z,90.70
2018-03-01T23:57:56.719Z,90.70
